sensor_id;sensor_type;location;lat;lon;timestamp;P1;durP1;ratioP1;P2;durP2;ratioP2
48040;SDS011;33815;48.386;11.738;2024-01-16T00:02:05;5.13;;;3.35;;
48040;SDS011;33815;48.386;11.738;2024-01-16T00:04:33;3.50;;;2.70;;
48040;SDS011;33815;48.386;11.738;2024-01-16T00:06:58;6.35;;;3.30;;
48040;SDS011;33815;48.386;11.738;2024-01-16T00:09:23;3.17;;;2.78;;
48040;SDS011;33815;48.386;11.738;2024-01-16T00:11:49;4.25;;;2.78;;
48040;SDS011;33815;48.386;11.738;2024-01-16T00:14:14;3.15;;;2.88;;
48040;SDS011;33815;48.386;11.738;2024-01-16T00:16:42;3.50;;;2.80;;
48040;SDS011;33815;48.386;11.738;2024-01-16T00:19:09;6.45;;;3.17;;
48040;SDS011;33815;48.386;11.738;2024-01-16T00:21:39;5.82;;;3.28;;
48040;SDS011;33815;48.386;11.738;2024-01-16T00:24:04;3.83;;;2.92;;
48040;SDS011;33815;48.386;11.738;2024-01-16T00:26:30;3.53;;;2.83;;
48040;SDS011;33815;48.386;11.738;2024-01-16T00:28:55;7.05;;;3.08;;
48040;SDS011;33815;48.386;11.738;2024-01-16T00:31:20;4.05;;;2.28;;
48040;SDS011;33815;48.386;11.738;2024-01-16T00:33:45;3.05;;;2.72;;
48040;SDS011;33815;48.386;11.738;2024-01-16T00:36:11;2.50;;;2.30;;
48040;SDS011;33815;48.386;11.738;2024-01-16T00:38:36;3.67;;;2.78;;
48040;SDS011;33815;48.386;11.738;2024-01-16T00:41:01;3.10;;;2.78;;
48040;SDS011;33815;48.386;11.738;2024-01-16T00:43:26;3.15;;;2.75;;
48040;SDS011;33815;48.386;11.738;2024-01-16T00:45:52;3.67;;;2.88;;
48040;SDS011;33815;48.386;11.738;2024-01-16T00:48:17;3.63;;;2.28;;
48040;SDS011;33815;48.386;11.738;2024-01-16T00:50:44;4.82;;;2.60;;
48040;SDS011;33815;48.386;11.738;2024-01-16T00:53:11;3.00;;;2.70;;
48040;SDS011;33815;48.386;11.738;2024-01-16T00:55:36;3.50;;;2.85;;
48040;SDS011;33815;48.386;11.738;2024-01-16T00:58:01;5.68;;;3.65;;
48040;SDS011;33815;48.386;11.738;2024-01-16T01:00:27;5.05;;;2.75;;
48040;SDS011;33815;48.386;11.738;2024-01-16T01:02:54;4.43;;;2.55;;
48040;SDS011;33815;48.386;11.738;2024-01-16T01:05:20;3.42;;;2.70;;
48040;SDS011;33815;48.386;11.738;2024-01-16T01:07:45;5.43;;;2.28;;
48040;SDS011;33815;48.386;11.738;2024-01-16T01:10:11;7.70;;;2.83;;
48040;SDS011;33815;48.386;11.738;2024-01-16T01:12:36;4.88;;;2.72;;
48040;SDS011;33815;48.386;11.738;2024-01-16T01:15:01;3.67;;;2.70;;
48040;SDS011;33815;48.386;11.738;2024-01-16T01:17:26;2.45;;;2.17;;
48040;SDS011;33815;48.386;11.738;2024-01-16T01:19:52;3.83;;;2.53;;
48040;SDS011;33815;48.386;11.738;2024-01-16T01:22:17;4.95;;;2.85;;
48040;SDS011;33815;48.386;11.738;2024-01-16T01:24:42;2.75;;;2.55;;
48040;SDS011;33815;48.386;11.738;2024-01-16T01:27:07;5.03;;;2.55;;
48040;SDS011;33815;48.386;11.738;2024-01-16T01:29:33;3.97;;;2.88;;
48040;SDS011;33815;48.386;11.738;2024-01-16T01:31:58;5.28;;;2.90;;
48040;SDS011;33815;48.386;11.738;2024-01-16T01:34:23;2.90;;;2.70;;
48040;SDS011;33815;48.386;11.738;2024-01-16T01:36:49;3.72;;;2.88;;
48040;SDS011;33815;48.386;11.738;2024-01-16T01:39:14;4.72;;;2.50;;
48040;SDS011;33815;48.386;11.738;2024-01-16T01:41:39;4.63;;;3.03;;
48040;SDS011;33815;48.386;11.738;2024-01-16T01:44:05;6.68;;;3.00;;
48040;SDS011;33815;48.386;11.738;2024-01-16T01:46:32;3.05;;;2.75;;
48040;SDS011;33815;48.386;11.738;2024-01-16T01:48:59;3.05;;;2.75;;
48040;SDS011;33815;48.386;11.738;2024-01-16T01:51:24;3.47;;;3.17;;
48040;SDS011;33815;48.386;11.738;2024-01-16T01:53:50;4.50;;;2.42;;
48040;SDS011;33815;48.386;11.738;2024-01-16T01:56:17;3.90;;;2.75;;
48040;SDS011;33815;48.386;11.738;2024-01-16T01:58:44;6.63;;;3.40;;
48040;SDS011;33815;48.386;11.738;2024-01-16T02:01:11;4.57;;;3.25;;
48040;SDS011;33815;48.386;11.738;2024-01-16T02:03:42;3.67;;;2.92;;
48040;SDS011;33815;48.386;11.738;2024-01-16T02:06:09;2.65;;;2.47;;
48040;SDS011;33815;48.386;11.738;2024-01-16T02:08:35;3.85;;;2.72;;
48040;SDS011;33815;48.386;11.738;2024-01-16T02:11:01;5.05;;;3.40;;
48040;SDS011;33815;48.386;11.738;2024-01-16T02:13:27;3.85;;;3.00;;
48040;SDS011;33815;48.386;11.738;2024-01-16T02:15:53;4.43;;;2.72;;
48040;SDS011;33815;48.386;11.738;2024-01-16T02:18:18;5.60;;;2.63;;
48040;SDS011;33815;48.386;11.738;2024-01-16T02:20:44;3.38;;;3.08;;
48040;SDS011;33815;48.386;11.738;2024-01-16T02:23:11;4.13;;;3.00;;
48040;SDS011;33815;48.386;11.738;2024-01-16T02:25:38;3.00;;;2.70;;
48040;SDS011;33815;48.386;11.738;2024-01-16T02:28:05;3.00;;;2.60;;
48040;SDS011;33815;48.386;11.738;2024-01-16T02:30:30;6.45;;;3.05;;
48040;SDS011;33815;48.386;11.738;2024-01-16T02:32:56;5.93;;;2.97;;
48040;SDS011;33815;48.386;11.738;2024-01-16T02:35:21;5.28;;;3.10;;
48040;SDS011;33815;48.386;11.738;2024-01-16T02:37:46;3.70;;;2.67;;
48040;SDS011;33815;48.386;11.738;2024-01-16T02:40:11;5.57;;;3.03;;
48040;SDS011;33815;48.386;11.738;2024-01-16T02:42:37;4.10;;;2.95;;
48040;SDS011;33815;48.386;11.738;2024-01-16T02:45:03;5.97;;;2.90;;
48040;SDS011;33815;48.386;11.738;2024-01-16T02:47:29;3.47;;;3.13;;
48040;SDS011;33815;48.386;11.738;2024-01-16T02:49:55;3.88;;;2.67;;
48040;SDS011;33815;48.386;11.738;2024-01-16T02:52:20;5.50;;;3.22;;
48040;SDS011;33815;48.386;11.738;2024-01-16T02:54:45;3.40;;;2.97;;
48040;SDS011;33815;48.386;11.738;2024-01-16T02:57:11;5.93;;;2.65;;
48040;SDS011;33815;48.386;11.738;2024-01-16T02:59:36;5.85;;;2.90;;
48040;SDS011;33815;48.386;11.738;2024-01-16T03:02:01;3.58;;;2.70;;
48040;SDS011;33815;48.386;11.738;2024-01-16T03:04:27;3.58;;;3.15;;
48040;SDS011;33815;48.386;11.738;2024-01-16T03:06:52;3.58;;;2.92;;
48040;SDS011;33815;48.386;11.738;2024-01-16T03:09:18;5.90;;;2.92;;
48040;SDS011;33815;48.386;11.738;2024-01-16T03:11:43;5.65;;;3.03;;
48040;SDS011;33815;48.386;11.738;2024-01-16T03:14:08;5.53;;;3.15;;
48040;SDS011;33815;48.386;11.738;2024-01-16T03:16:34;2.97;;;2.75;;
48040;SDS011;33815;48.386;11.738;2024-01-16T03:19:00;3.40;;;3.10;;
48040;SDS011;33815;48.386;11.738;2024-01-16T03:21:25;3.28;;;2.78;;
48040;SDS011;33815;48.386;11.738;2024-01-16T03:23:51;4.88;;;3.20;;
48040;SDS011;33815;48.386;11.738;2024-01-16T03:26:16;4.43;;;2.70;;
48040;SDS011;33815;48.386;11.738;2024-01-16T03:28:42;4.20;;;2.55;;
48040;SDS011;33815;48.386;11.738;2024-01-16T03:31:07;6.35;;;3.45;;
48040;SDS011;33815;48.386;11.738;2024-01-16T03:33:33;4.72;;;3.20;;
48040;SDS011;33815;48.386;11.738;2024-01-16T03:35:59;4.70;;;3.20;;
48040;SDS011;33815;48.386;11.738;2024-01-16T03:38:25;4.05;;;2.75;;
48040;SDS011;33815;48.386;11.738;2024-01-16T03:40:50;4.50;;;3.15;;
48040;SDS011;33815;48.386;11.738;2024-01-16T03:43:16;5.85;;;3.30;;
48040;SDS011;33815;48.386;11.738;2024-01-16T03:45:42;4.80;;;3.03;;
48040;SDS011;33815;48.386;11.738;2024-01-16T03:48:07;2.72;;;2.28;;
48040;SDS011;33815;48.386;11.738;2024-01-16T03:50:32;6.10;;;3.10;;
48040;SDS011;33815;48.386;11.738;2024-01-16T03:52:59;3.13;;;2.83;;
48040;SDS011;33815;48.386;11.738;2024-01-16T03:55:24;8.32;;;3.13;;
48040;SDS011;33815;48.386;11.738;2024-01-16T03:57:49;4.05;;;3.45;;
48040;SDS011;33815;48.386;11.738;2024-01-16T04:00:16;3.00;;;2.80;;
48040;SDS011;33815;48.386;11.738;2024-01-16T04:02:41;6.13;;;2.90;;
48040;SDS011;33815;48.386;11.738;2024-01-16T04:05:07;5.22;;;2.90;;
48040;SDS011;33815;48.386;11.738;2024-01-16T04:07:33;3.55;;;3.17;;
48040;SDS011;33815;48.386;11.738;2024-01-16T04:09:58;4.30;;;2.67;;
48040;SDS011;33815;48.386;11.738;2024-01-16T04:12:23;3.08;;;2.88;;
48040;SDS011;33815;48.386;11.738;2024-01-16T04:14:48;5.38;;;3.00;;
48040;SDS011;33815;48.386;11.738;2024-01-16T04:17:14;6.13;;;2.83;;
48040;SDS011;33815;48.386;11.738;2024-01-16T04:19:39;5.50;;;3.05;;
48040;SDS011;33815;48.386;11.738;2024-01-16T04:22:04;4.82;;;3.22;;
48040;SDS011;33815;48.386;11.738;2024-01-16T04:24:30;5.05;;;2.80;;
48040;SDS011;33815;48.386;11.738;2024-01-16T04:26:55;4.40;;;3.70;;
48040;SDS011;33815;48.386;11.738;2024-01-16T04:29:20;3.78;;;3.42;;
48040;SDS011;33815;48.386;11.738;2024-01-16T04:31:46;5.63;;;3.30;;
48040;SDS011;33815;48.386;11.738;2024-01-16T04:34:11;8.38;;;3.35;;
48040;SDS011;33815;48.386;11.738;2024-01-16T04:36:36;5.25;;;2.90;;
48040;SDS011;33815;48.386;11.738;2024-01-16T04:39:01;7.15;;;2.90;;
48040;SDS011;33815;48.386;11.738;2024-01-16T04:41:28;5.25;;;3.00;;
48040;SDS011;33815;48.386;11.738;2024-01-16T04:43:53;3.72;;;3.38;;
48040;SDS011;33815;48.386;11.738;2024-01-16T04:46:19;4.22;;;3.40;;
48040;SDS011;33815;48.386;11.738;2024-01-16T04:48:44;5.18;;;3.05;;
48040;SDS011;33815;48.386;11.738;2024-01-16T04:51:09;3.80;;;2.97;;
48040;SDS011;33815;48.386;11.738;2024-01-16T04:53:34;7.75;;;3.55;;
48040;SDS011;33815;48.386;11.738;2024-01-16T04:56:00;3.65;;;2.90;;
48040;SDS011;33815;48.386;11.738;2024-01-16T04:58:25;3.67;;;3.25;;
48040;SDS011;33815;48.386;11.738;2024-01-16T05:00:50;4.03;;;2.85;;
48040;SDS011;33815;48.386;11.738;2024-01-16T05:03:16;5.63;;;3.00;;
48040;SDS011;33815;48.386;11.738;2024-01-16T05:05:41;5.53;;;3.03;;
48040;SDS011;33815;48.386;11.738;2024-01-16T05:08:07;6.07;;;3.22;;
48040;SDS011;33815;48.386;11.738;2024-01-16T05:10:32;3.90;;;3.08;;
48040;SDS011;33815;48.386;11.738;2024-01-16T05:12:57;5.38;;;3.60;;
48040;SDS011;33815;48.386;11.738;2024-01-16T05:15:23;4.63;;;3.42;;
48040;SDS011;33815;48.386;11.738;2024-01-16T05:17:48;5.50;;;3.40;;
48040;SDS011;33815;48.386;11.738;2024-01-16T05:20:13;4.05;;;2.80;;
48040;SDS011;33815;48.386;11.738;2024-01-16T05:22:39;4.50;;;3.03;;
48040;SDS011;33815;48.386;11.738;2024-01-16T05:25:04;5.22;;;3.25;;
48040;SDS011;33815;48.386;11.738;2024-01-16T05:27:32;3.78;;;3.25;;
48040;SDS011;33815;48.386;11.738;2024-01-16T05:29:57;4.22;;;3.00;;
48040;SDS011;33815;48.386;11.738;2024-01-16T05:32:23;2.80;;;2.60;;
48040;SDS011;33815;48.386;11.738;2024-01-16T05:34:48;4.38;;;3.38;;
48040;SDS011;33815;48.386;11.738;2024-01-16T05:37:13;3.67;;;3.28;;
48040;SDS011;33815;48.386;11.738;2024-01-16T05:39:38;4.00;;;2.78;;
48040;SDS011;33815;48.386;11.738;2024-01-16T05:42:04;6.85;;;3.17;;
48040;SDS011;33815;48.386;11.738;2024-01-16T05:44:30;2.80;;;2.60;;
48040;SDS011;33815;48.386;11.738;2024-01-16T05:46:55;7.15;;;3.15;;
48040;SDS011;33815;48.386;11.738;2024-01-16T05:49:20;3.25;;;2.75;;
48040;SDS011;33815;48.386;11.738;2024-01-16T05:51:46;5.05;;;3.03;;
48040;SDS011;33815;48.386;11.738;2024-01-16T05:54:11;4.30;;;3.03;;
48040;SDS011;33815;48.386;11.738;2024-01-16T05:56:36;3.90;;;3.13;;
48040;SDS011;33815;48.386;11.738;2024-01-16T05:59:02;4.22;;;2.67;;
48040;SDS011;33815;48.386;11.738;2024-01-16T06:01:27;12.90;;;3.13;;
48040;SDS011;33815;48.386;11.738;2024-01-16T06:03:52;6.78;;;4.28;;
48040;SDS011;33815;48.386;11.738;2024-01-16T06:06:18;4.30;;;3.00;;
48040;SDS011;33815;48.386;11.738;2024-01-16T06:08:44;34.22;;;12.40;;
48040;SDS011;33815;48.386;11.738;2024-01-16T06:11:09;38.38;;;14.45;;
48040;SDS011;33815;48.386;11.738;2024-01-16T06:13:35;20.00;;;8.07;;
48040;SDS011;33815;48.386;11.738;2024-01-16T06:16:01;46.63;;;20.30;;
48040;SDS011;33815;48.386;11.738;2024-01-16T06:18:27;108.55;;;42.05;;
48040;SDS011;33815;48.386;11.738;2024-01-16T06:20:52;73.25;;;28.25;;
48040;SDS011;33815;48.386;11.738;2024-01-16T06:23:17;49.08;;;19.75;;
48040;SDS011;33815;48.386;11.738;2024-01-16T06:25:43;101.60;;;31.95;;
48040;SDS011;33815;48.386;11.738;2024-01-16T06:28:09;68.28;;;23.73;;
48040;SDS011;33815;48.386;11.738;2024-01-16T06:30:34;223.05;;;70.88;;
48040;SDS011;33815;48.386;11.738;2024-01-16T06:32:59;192.25;;;65.43;;
48040;SDS011;33815;48.386;11.738;2024-01-16T06:35:25;105.55;;;40.08;;
48040;SDS011;33815;48.386;11.738;2024-01-16T06:37:50;60.10;;;26.58;;
48040;SDS011;33815;48.386;11.738;2024-01-16T06:40:16;16.73;;;10.35;;
48040;SDS011;33815;48.386;11.738;2024-01-16T06:42:41;12.52;;;5.82;;
48040;SDS011;33815;48.386;11.738;2024-01-16T06:45:06;23.05;;;9.32;;
48040;SDS011;33815;48.386;11.738;2024-01-16T06:47:32;8.10;;;5.05;;
48040;SDS011;33815;48.386;11.738;2024-01-16T06:49:57;48.70;;;19.60;;
48040;SDS011;33815;48.386;11.738;2024-01-16T06:52:23;23.73;;;12.43;;
48040;SDS011;33815;48.386;11.738;2024-01-16T06:54:49;21.10;;;10.38;;
48040;SDS011;33815;48.386;11.738;2024-01-16T06:57:15;24.17;;;14.18;;
48040;SDS011;33815;48.386;11.738;2024-01-16T06:59:40;9.95;;;6.57;;
48040;SDS011;33815;48.386;11.738;2024-01-16T07:02:06;8.80;;;4.95;;
48040;SDS011;33815;48.386;11.738;2024-01-16T07:04:31;9.40;;;4.78;;
48040;SDS011;33815;48.386;11.738;2024-01-16T07:06:57;12.10;;;5.03;;
48040;SDS011;33815;48.386;11.738;2024-01-16T07:09:24;9.32;;;5.57;;
48040;SDS011;33815;48.386;11.738;2024-01-16T07:11:49;8.38;;;5.18;;
48040;SDS011;33815;48.386;11.738;2024-01-16T07:14:14;12.65;;;6.40;;
48040;SDS011;33815;48.386;11.738;2024-01-16T07:16:40;6.18;;;4.82;;
48040;SDS011;33815;48.386;11.738;2024-01-16T07:19:05;5.63;;;3.95;;
48040;SDS011;33815;48.386;11.738;2024-01-16T07:21:30;9.38;;;5.05;;
48040;SDS011;33815;48.386;11.738;2024-01-16T07:23:56;8.93;;;4.70;;
48040;SDS011;33815;48.386;11.738;2024-01-16T07:26:22;6.72;;;3.67;;
48040;SDS011;33815;48.386;11.738;2024-01-16T07:28:47;6.80;;;3.45;;
48040;SDS011;33815;48.386;11.738;2024-01-16T07:31:14;5.80;;;5.07;;
48040;SDS011;33815;48.386;11.738;2024-01-16T07:33:41;6.35;;;4.75;;
48040;SDS011;33815;48.386;11.738;2024-01-16T07:36:07;6.68;;;4.22;;
48040;SDS011;33815;48.386;11.738;2024-01-16T07:38:33;7.25;;;5.13;;
48040;SDS011;33815;48.386;11.738;2024-01-16T07:40:59;9.45;;;6.28;;
48040;SDS011;33815;48.386;11.738;2024-01-16T07:43:24;12.18;;;7.25;;
48040;SDS011;33815;48.386;11.738;2024-01-16T07:45:50;16.65;;;9.05;;
48040;SDS011;33815;48.386;11.738;2024-01-16T07:48:15;12.32;;;7.43;;
48040;SDS011;33815;48.386;11.738;2024-01-16T07:50:40;36.85;;;16.77;;
48040;SDS011;33815;48.386;11.738;2024-01-16T07:53:06;13.85;;;7.57;;
48040;SDS011;33815;48.386;11.738;2024-01-16T07:55:31;19.88;;;8.50;;
48040;SDS011;33815;48.386;11.738;2024-01-16T07:57:56;7.43;;;4.70;;
48040;SDS011;33815;48.386;11.738;2024-01-16T08:00:22;6.28;;;4.38;;
48040;SDS011;33815;48.386;11.738;2024-01-16T08:02:47;5.90;;;4.20;;
48040;SDS011;33815;48.386;11.738;2024-01-16T08:05:12;8.63;;;4.75;;
48040;SDS011;33815;48.386;11.738;2024-01-16T08:07:38;39.90;;;13.13;;
48040;SDS011;33815;48.386;11.738;2024-01-16T08:10:03;25.13;;;9.98;;
48040;SDS011;33815;48.386;11.738;2024-01-16T08:12:29;6.88;;;5.05;;
48040;SDS011;33815;48.386;11.738;2024-01-16T08:14:54;8.57;;;4.10;;
48040;SDS011;33815;48.386;11.738;2024-01-16T08:17:19;10.65;;;4.80;;
48040;SDS011;33815;48.386;11.738;2024-01-16T08:19:45;7.97;;;4.53;;
48040;SDS011;33815;48.386;11.738;2024-01-16T08:22:10;8.30;;;4.03;;
48040;SDS011;33815;48.386;11.738;2024-01-16T08:24:35;9.73;;;3.78;;
48040;SDS011;33815;48.386;11.738;2024-01-16T08:27:01;5.45;;;4.05;;
48040;SDS011;33815;48.386;11.738;2024-01-16T08:29:27;4.05;;;3.50;;
48040;SDS011;33815;48.386;11.738;2024-01-16T08:31:53;7.43;;;4.50;;
48040;SDS011;33815;48.386;11.738;2024-01-16T08:34:18;6.57;;;4.22;;
48040;SDS011;33815;48.386;11.738;2024-01-16T08:36:44;10.05;;;4.32;;
48040;SDS011;33815;48.386;11.738;2024-01-16T08:39:09;6.10;;;4.22;;
48040;SDS011;33815;48.386;11.738;2024-01-16T08:41:35;11.02;;;4.80;;
48040;SDS011;33815;48.386;11.738;2024-01-16T08:44:00;7.78;;;4.47;;
48040;SDS011;33815;48.386;11.738;2024-01-16T08:46:26;7.82;;;4.63;;
48040;SDS011;33815;48.386;11.738;2024-01-16T08:48:51;10.30;;;4.57;;
48040;SDS011;33815;48.386;11.738;2024-01-16T08:51:16;7.13;;;3.65;;
48040;SDS011;33815;48.386;11.738;2024-01-16T08:53:42;11.70;;;4.57;;
48040;SDS011;33815;48.386;11.738;2024-01-16T08:56:07;7.82;;;4.35;;
48040;SDS011;33815;48.386;11.738;2024-01-16T08:58:33;8.45;;;4.85;;
48040;SDS011;33815;48.386;11.738;2024-01-16T09:01:02;9.95;;;3.95;;
48040;SDS011;33815;48.386;11.738;2024-01-16T09:03:28;7.57;;;4.15;;
48040;SDS011;33815;48.386;11.738;2024-01-16T09:05:53;7.57;;;3.95;;
48040;SDS011;33815;48.386;11.738;2024-01-16T09:08:18;6.75;;;4.38;;
48040;SDS011;33815;48.386;11.738;2024-01-16T09:10:43;7.28;;;4.35;;
48040;SDS011;33815;48.386;11.738;2024-01-16T09:13:09;6.18;;;4.18;;
48040;SDS011;33815;48.386;11.738;2024-01-16T09:15:34;5.18;;;3.83;;
48040;SDS011;33815;48.386;11.738;2024-01-16T09:17:59;9.35;;;4.57;;
48040;SDS011;33815;48.386;11.738;2024-01-16T09:20:24;4.50;;;3.70;;
48040;SDS011;33815;48.386;11.738;2024-01-16T09:22:50;6.45;;;4.32;;
48040;SDS011;33815;48.386;11.738;2024-01-16T09:25:15;6.50;;;4.40;;
48040;SDS011;33815;48.386;11.738;2024-01-16T09:27:41;8.85;;;4.30;;
48040;SDS011;33815;48.386;11.738;2024-01-16T09:30:07;5.88;;;3.60;;
48040;SDS011;33815;48.386;11.738;2024-01-16T09:32:33;8.57;;;3.95;;
48040;SDS011;33815;48.386;11.738;2024-01-16T09:35:00;9.75;;;4.30;;
48040;SDS011;33815;48.386;11.738;2024-01-16T09:37:27;5.80;;;3.80;;
48040;SDS011;33815;48.386;11.738;2024-01-16T09:39:53;5.53;;;3.78;;
48040;SDS011;33815;48.386;11.738;2024-01-16T09:42:19;8.10;;;4.50;;
48040;SDS011;33815;48.386;11.738;2024-01-16T09:44:45;6.07;;;4.03;;
48040;SDS011;33815;48.386;11.738;2024-01-16T09:47:11;6.13;;;3.95;;
48040;SDS011;33815;48.386;11.738;2024-01-16T09:49:37;19.92;;;5.38;;
48040;SDS011;33815;48.386;11.738;2024-01-16T09:52:04;6.00;;;4.00;;
48040;SDS011;33815;48.386;11.738;2024-01-16T09:54:30;7.03;;;4.10;;
48040;SDS011;33815;48.386;11.738;2024-01-16T09:56:56;6.57;;;4.70;;
48040;SDS011;33815;48.386;11.738;2024-01-16T09:59:23;7.78;;;3.80;;
48040;SDS011;33815;48.386;11.738;2024-01-16T10:01:49;8.60;;;3.85;;
48040;SDS011;33815;48.386;11.738;2024-01-16T10:04:17;9.85;;;4.07;;
48040;SDS011;33815;48.386;11.738;2024-01-16T10:06:44;10.05;;;4.22;;
48040;SDS011;33815;48.386;11.738;2024-01-16T10:09:11;10.90;;;3.45;;
48040;SDS011;33815;48.386;11.738;2024-01-16T10:11:37;4.75;;;3.92;;
48040;SDS011;33815;48.386;11.738;2024-01-16T10:14:03;4.75;;;3.95;;
48040;SDS011;33815;48.386;11.738;2024-01-16T10:19:23;6.10;;;3.90;;
48040;SDS011;33815;48.386;11.738;2024-01-16T10:21:48;4.88;;;3.63;;
48040;SDS011;33815;48.386;11.738;2024-01-16T10:24:14;10.75;;;4.57;;
48040;SDS011;33815;48.386;11.738;2024-01-16T10:26:39;4.60;;;4.20;;
48040;SDS011;33815;48.386;11.738;2024-01-16T10:29:05;11.20;;;4.68;;
48040;SDS011;33815;48.386;11.738;2024-01-16T10:31:30;13.55;;;3.95;;
48040;SDS011;33815;48.386;11.738;2024-01-16T10:33:56;5.47;;;3.78;;
48040;SDS011;33815;48.386;11.738;2024-01-16T10:36:23;6.45;;;3.72;;
48040;SDS011;33815;48.386;11.738;2024-01-16T10:38:50;4.53;;;3.70;;
48040;SDS011;33815;48.386;11.738;2024-01-16T10:41:22;8.98;;;3.92;;
48040;SDS011;33815;48.386;11.738;2024-01-16T10:44:02;8.32;;;3.97;;
48040;SDS011;33815;48.386;11.738;2024-01-16T10:46:32;7.80;;;3.75;;
48040;SDS011;33815;48.386;11.738;2024-01-16T10:49:04;7.28;;;3.70;;
48040;SDS011;33815;48.386;11.738;2024-01-16T10:51:30;10.90;;;3.70;;
48040;SDS011;33815;48.386;11.738;2024-01-16T10:53:58;5.03;;;3.55;;
48040;SDS011;33815;48.386;11.738;2024-01-16T10:56:24;5.72;;;4.03;;
48040;SDS011;33815;48.386;11.738;2024-01-16T10:58:57;5.50;;;3.45;;
48040;SDS011;33815;48.386;11.738;2024-01-16T11:01:26;6.90;;;3.60;;
48040;SDS011;33815;48.386;11.738;2024-01-16T11:03:53;11.52;;;4.38;;
48040;SDS011;33815;48.386;11.738;2024-01-16T11:06:22;8.90;;;3.30;;
48040;SDS011;33815;48.386;11.738;2024-01-16T11:08:48;4.78;;;3.20;;
48040;SDS011;33815;48.386;11.738;2024-01-16T11:11:14;10.85;;;3.58;;
48040;SDS011;33815;48.386;11.738;2024-01-16T11:13:40;3.65;;;3.25;;
48040;SDS011;33815;48.386;11.738;2024-01-16T11:16:10;5.22;;;3.55;;
48040;SDS011;33815;48.386;11.738;2024-01-16T11:18:36;5.50;;;3.63;;
48040;SDS011;33815;48.386;11.738;2024-01-16T11:21:02;7.43;;;4.30;;
48040;SDS011;33815;48.386;11.738;2024-01-16T11:23:30;5.18;;;3.30;;
48040;SDS011;33815;48.386;11.738;2024-01-16T11:25:56;8.15;;;3.30;;
48040;SDS011;33815;48.386;11.738;2024-01-16T11:28:21;3.72;;;2.80;;
48040;SDS011;33815;48.386;11.738;2024-01-16T11:30:53;4.25;;;2.85;;
48040;SDS011;33815;48.386;11.738;2024-01-16T11:35:59;5.57;;;3.17;;
48040;SDS011;33815;48.386;11.738;2024-01-16T11:38:25;5.45;;;3.33;;
48040;SDS011;33815;48.386;11.738;2024-01-16T11:40:54;7.07;;;3.30;;
48040;SDS011;33815;48.386;11.738;2024-01-16T11:46:00;7.57;;;3.08;;
48040;SDS011;33815;48.386;11.738;2024-01-16T11:48:33;4.60;;;2.90;;
48040;SDS011;33815;48.386;11.738;2024-01-16T11:50:59;4.85;;;3.22;;
48040;SDS011;33815;48.386;11.738;2024-01-16T11:53:35;10.43;;;2.78;;
48040;SDS011;33815;48.386;11.738;2024-01-16T11:58:45;6.78;;;3.30;;
48040;SDS011;33815;48.386;11.738;2024-01-16T12:01:21;7.40;;;3.22;;
48040;SDS011;33815;48.386;11.738;2024-01-16T12:03:56;7.90;;;3.30;;
48040;SDS011;33815;48.386;11.738;2024-01-16T12:06:26;6.63;;;3.20;;
48040;SDS011;33815;48.386;11.738;2024-01-16T12:08:51;5.10;;;3.30;;
48040;SDS011;33815;48.386;11.738;2024-01-16T12:11:20;7.57;;;3.08;;
48040;SDS011;33815;48.386;11.738;2024-01-16T12:14:00;6.53;;;3.38;;
48040;SDS011;33815;48.386;11.738;2024-01-16T12:16:26;7.18;;;3.08;;
48040;SDS011;33815;48.386;11.738;2024-01-16T12:19:03;5.40;;;2.88;;
48040;SDS011;33815;48.386;11.738;2024-01-16T12:21:44;7.38;;;3.35;;
48040;SDS011;33815;48.386;11.738;2024-01-16T12:24:10;4.90;;;2.38;;
48040;SDS011;33815;48.386;11.738;2024-01-16T12:26:36;8.00;;;3.03;;
48040;SDS011;33815;48.386;11.738;2024-01-16T12:29:02;6.32;;;2.47;;
48040;SDS011;33815;48.386;11.738;2024-01-16T12:31:28;4.72;;;2.70;;
48040;SDS011;33815;48.386;11.738;2024-01-16T12:34:07;7.13;;;2.53;;
48040;SDS011;33815;48.386;11.738;2024-01-16T12:36:33;3.45;;;2.60;;
48040;SDS011;33815;48.386;11.738;2024-01-16T12:38:59;9.65;;;2.60;;
48040;SDS011;33815;48.386;11.738;2024-01-16T12:41:24;4.75;;;2.72;;
48040;SDS011;33815;48.386;11.738;2024-01-16T12:43:52;3.38;;;2.47;;
48040;SDS011;33815;48.386;11.738;2024-01-16T12:46:18;4.25;;;2.92;;
48040;SDS011;33815;48.386;11.738;2024-01-16T12:48:44;10.55;;;2.95;;
48040;SDS011;33815;48.386;11.738;2024-01-16T12:51:09;5.85;;;2.58;;
48040;SDS011;33815;48.386;11.738;2024-01-16T12:53:37;9.35;;;2.80;;
48040;SDS011;33815;48.386;11.738;2024-01-16T12:56:04;5.00;;;2.38;;
48040;SDS011;33815;48.386;11.738;2024-01-16T12:58:33;8.35;;;2.67;;
48040;SDS011;33815;48.386;11.738;2024-01-16T13:01:20;3.63;;;2.50;;
48040;SDS011;33815;48.386;11.738;2024-01-16T13:03:51;5.90;;;2.00;;
48040;SDS011;33815;48.386;11.738;2024-01-16T13:06:18;2.05;;;1.85;;
48040;SDS011;33815;48.386;11.738;2024-01-16T13:08:45;5.40;;;2.33;;
48040;SDS011;33815;48.386;11.738;2024-01-16T13:11:12;4.35;;;2.45;;
48040;SDS011;33815;48.386;11.738;2024-01-16T13:13:40;3.03;;;2.10;;
48040;SDS011;33815;48.386;11.738;2024-01-16T13:16:06;2.70;;;2.10;;
48040;SDS011;33815;48.386;11.738;2024-01-16T13:18:31;2.35;;;1.88;;
48040;SDS011;33815;48.386;11.738;2024-01-16T13:20:58;4.85;;;2.50;;
48040;SDS011;33815;48.386;11.738;2024-01-16T13:23:25;5.50;;;2.53;;
48040;SDS011;33815;48.386;11.738;2024-01-16T13:25:50;3.20;;;2.38;;
48040;SDS011;33815;48.386;11.738;2024-01-16T13:28:16;11.82;;;2.30;;
48040;SDS011;33815;48.386;11.738;2024-01-16T13:30:44;4.82;;;2.30;;
48040;SDS011;33815;48.386;11.738;2024-01-16T13:33:11;5.43;;;2.38;;
48040;SDS011;33815;48.386;11.738;2024-01-16T13:35:37;3.45;;;2.47;;
48040;SDS011;33815;48.386;11.738;2024-01-16T13:38:04;6.85;;;2.80;;
48040;SDS011;33815;48.386;11.738;2024-01-16T13:40:30;10.80;;;3.03;;
48040;SDS011;33815;48.386;11.738;2024-01-16T13:42:56;6.22;;;2.65;;
48040;SDS011;33815;48.386;11.738;2024-01-16T13:45:21;5.47;;;2.95;;
48040;SDS011;33815;48.386;11.738;2024-01-16T13:47:47;8.35;;;2.53;;
48040;SDS011;33815;48.386;11.738;2024-01-16T13:50:13;8.80;;;2.80;;
48040;SDS011;33815;48.386;11.738;2024-01-16T13:52:38;8.25;;;3.72;;
48040;SDS011;33815;48.386;11.738;2024-01-16T13:55:05;7.00;;;3.17;;
48040;SDS011;33815;48.386;11.738;2024-01-16T13:57:31;5.35;;;2.88;;
48040;SDS011;33815;48.386;11.738;2024-01-16T13:59:57;5.00;;;2.97;;
48040;SDS011;33815;48.386;11.738;2024-01-16T14:02:23;4.03;;;3.03;;
48040;SDS011;33815;48.386;11.738;2024-01-16T14:04:48;10.43;;;2.97;;
48040;SDS011;33815;48.386;11.738;2024-01-16T14:07:14;9.70;;;2.70;;
48040;SDS011;33815;48.386;11.738;2024-01-16T14:09:39;3.35;;;2.72;;
48040;SDS011;33815;48.386;11.738;2024-01-16T14:12:08;8.07;;;3.08;;
48040;SDS011;33815;48.386;11.738;2024-01-16T14:14:33;5.70;;;2.60;;
48040;SDS011;33815;48.386;11.738;2024-01-16T14:16:59;9.27;;;2.70;;
48040;SDS011;33815;48.386;11.738;2024-01-16T14:19:25;5.18;;;2.95;;
48040;SDS011;33815;48.386;11.738;2024-01-16T14:21:51;4.22;;;2.80;;
48040;SDS011;33815;48.386;11.738;2024-01-16T14:24:17;6.05;;;3.50;;
48040;SDS011;33815;48.386;11.738;2024-01-16T14:26:42;8.73;;;3.30;;
48040;SDS011;33815;48.386;11.738;2024-01-16T14:29:09;11.60;;;4.93;;
48040;SDS011;33815;48.386;11.738;2024-01-16T14:31:34;11.07;;;4.78;;
48040;SDS011;33815;48.386;11.738;2024-01-16T14:34:00;8.60;;;3.53;;
48040;SDS011;33815;48.386;11.738;2024-01-16T14:36:25;4.30;;;2.80;;